Tropical Cyclones
[Index]
Main Index Home Page Stock Weather Photos Extreme Storms Discussion Storm News and Storm Chasing Reports Tropical Cyclones / Hurricanes / Typhoons Weather Data and Links Wild Fires / Bushfires Weather Observation Techniques Weather Picture Catalogue Tornado Pictures and Reports Stock Video Footage and DVDs for sale
Season 1976-1977 Tropical Cyclone ROBERT Track Map
Season 1976-1977 Summaries: [BoM-AU] [JTWC-AU] [JTWC-SIO] [JTWC-SPAC] [JTWC-SH]
<<- Previous TC | JTWC 1976-1977 Season | Next TC ->>

click for intensity scale information  Lat/long Grid: Show Hide

 Date Labels: Show Hide

Joint Typhoon Warning Centre Cyclone Data

Name: ROBERT
Number: 955 / 7724

16 Apr 1977 00:00 UTC to 23 Apr 1977 12:00 UTC

    date/time    lat    long     hPa   cat  kts
1977-04-16 00   12.0   158.0W                 25          
1977-04-16 06   11.9   156.6W                 30          
1977-04-16 12   12.0   155.7W                 35          
1977-04-16 18   12.2   155.2W                 35          
1977-04-17 00   12.5   155.0W                 35          
1977-04-17 06   12.7   155.0W                 35          
1977-04-17 12   13.0   155.2W                 35          
1977-04-17 18   13.2   155.6W                 35          
1977-04-18 00   13.5   156.0W           1     40          
1977-04-18 06   14.0   156.5W           1     40          
1977-04-18 12   14.5   157.0W           1     40          
1977-04-18 18   14.7   157.4W           1     40          
1977-04-19 00   15.0   157.5W           1     40          
1977-04-19 06   15.5   157.3W           1     40          
1977-04-19 12   16.0   157.0W           1     45          
1977-04-19 18   16.5   156.8W           1     45          
1977-04-20 00   17.0   156.5W           1     50          
1977-04-20 06   17.7   155.9W           2     55          
1977-04-20 12   18.5   154.9W           2     65          
1977-04-20 18   19.3   153.6W           3     75          
1977-04-21 00   20.2   152.0W           3     80          
1977-04-21 06   21.2   150.2W           3     75          
1977-04-21 12   22.0   148.0W           2     70          
1977-04-21 18   22.5   145.2W           2     65          
1977-04-22 00   23.0   142.5W           2     60          
1977-04-22 06   23.5   140.2W           1     50          
1977-04-22 12   24.0   138.0W           1     40          
1977-04-22 18   24.9   135.9W           1     40          
1977-04-23 00   26.0   134.0W                 35          
1977-04-23 06   26.6   132.7W                 35          
1977-04-23 12   27.0   132.0W                 30          
Winds are 1-min average.

Tropical cyclone tracks developed by Michael Bath using data from the Joint Typhoon Warning Centre Best Tracks and Google Maps.


[Australian Severe Weather index] [Copyright Notice] [Email Contacts] [Search This Site] [Privacy Policy]
Document: tropical_cyclone_robert.htm Updated: 18 September 2016